sensor_id;sensor_type;location;lat;lon;timestamp;P1;durP1;ratioP1;P2;durP2;ratioP2
44048;SDS011;29717;47.028;15.470;2024-01-16T00:00:55;27.03;;;19.23;;
44048;SDS011;29717;47.028;15.470;2024-01-16T00:03:21;27.37;;;19.90;;
44048;SDS011;29717;47.028;15.470;2024-01-16T00:05:50;27.27;;;19.53;;
44048;SDS011;29717;47.028;15.470;2024-01-16T00:08:16;27.97;;;19.30;;
44048;SDS011;29717;47.028;15.470;2024-01-16T00:10:43;25.37;;;19.33;;
44048;SDS011;29717;47.028;15.470;2024-01-16T00:13:10;27.23;;;20.07;;
44048;SDS011;29717;47.028;15.470;2024-01-16T00:15:37;26.00;;;18.93;;
44048;SDS011;29717;47.028;15.470;2024-01-16T00:18:06;24.20;;;16.53;;
44048;SDS011;29717;47.028;15.470;2024-01-16T00:20:33;22.57;;;15.93;;
44048;SDS011;29717;47.028;15.470;2024-01-16T00:23:02;19.27;;;13.70;;
44048;SDS011;29717;47.028;15.470;2024-01-16T00:25:28;20.23;;;13.97;;
44048;SDS011;29717;47.028;15.470;2024-01-16T00:27:55;18.27;;;13.80;;
44048;SDS011;29717;47.028;15.470;2024-01-16T00:30:22;20.57;;;13.07;;
44048;SDS011;29717;47.028;15.470;2024-01-16T00:32:49;18.57;;;13.13;;
44048;SDS011;29717;47.028;15.470;2024-01-16T00:35:15;19.37;;;12.73;;
44048;SDS011;29717;47.028;15.470;2024-01-16T00:37:42;17.20;;;11.97;;
44048;SDS011;29717;47.028;15.470;2024-01-16T00:40:11;14.13;;;10.47;;
44048;SDS011;29717;47.028;15.470;2024-01-16T00:42:38;14.13;;;10.80;;
44048;SDS011;29717;47.028;15.470;2024-01-16T00:45:05;15.03;;;9.73;;
44048;SDS011;29717;47.028;15.470;2024-01-16T00:47:32;13.83;;;10.23;;
44048;SDS011;29717;47.028;15.470;2024-01-16T00:49:59;14.30;;;10.73;;
44048;SDS011;29717;47.028;15.470;2024-01-16T00:52:27;14.67;;;10.70;;
44048;SDS011;29717;47.028;15.470;2024-01-16T00:54:54;15.57;;;10.73;;
44048;SDS011;29717;47.028;15.470;2024-01-16T00:57:22;16.27;;;10.57;;
44048;SDS011;29717;47.028;15.470;2024-01-16T00:59:49;15.63;;;10.30;;
44048;SDS011;29717;47.028;15.470;2024-01-16T01:02:16;15.33;;;10.67;;
44048;SDS011;29717;47.028;15.470;2024-01-16T01:04:42;14.13;;;9.97;;
44048;SDS011;29717;47.028;15.470;2024-01-16T01:07:12;14.17;;;10.27;;
44048;SDS011;29717;47.028;15.470;2024-01-16T01:09:39;16.33;;;10.33;;
44048;SDS011;29717;47.028;15.470;2024-01-16T01:12:06;17.80;;;10.83;;
44048;SDS011;29717;47.028;15.470;2024-01-16T01:14:34;15.63;;;11.17;;
44048;SDS011;29717;47.028;15.470;2024-01-16T01:17:01;13.67;;;10.07;;
44048;SDS011;29717;47.028;15.470;2024-01-16T01:19:28;13.03;;;9.77;;
44048;SDS011;29717;47.028;15.470;2024-01-16T01:21:54;12.27;;;9.67;;
44048;SDS011;29717;47.028;15.470;2024-01-16T01:24:21;16.40;;;10.03;;
44048;SDS011;29717;47.028;15.470;2024-01-16T01:26:48;12.57;;;9.23;;
44048;SDS011;29717;47.028;15.470;2024-01-16T01:29:15;15.50;;;10.03;;
44048;SDS011;29717;47.028;15.470;2024-01-16T01:31:46;11.27;;;9.43;;
44048;SDS011;29717;47.028;15.470;2024-01-16T01:34:14;12.93;;;9.47;;
44048;SDS011;29717;47.028;15.470;2024-01-16T01:36:41;13.23;;;9.87;;
44048;SDS011;29717;47.028;15.470;2024-01-16T01:39:08;13.40;;;10.07;;
44048;SDS011;29717;47.028;15.470;2024-01-16T01:41:36;13.13;;;9.27;;
44048;SDS011;29717;47.028;15.470;2024-01-16T01:44:03;14.33;;;9.20;;
44048;SDS011;29717;47.028;15.470;2024-01-16T01:46:29;11.77;;;9.17;;
44048;SDS011;29717;47.028;15.470;2024-01-16T01:48:59;10.97;;;9.20;;
44048;SDS011;29717;47.028;15.470;2024-01-16T01:51:26;13.27;;;9.73;;
44048;SDS011;29717;47.028;15.470;2024-01-16T01:53:53;13.73;;;9.37;;
44048;SDS011;29717;47.028;15.470;2024-01-16T01:56:20;12.77;;;9.40;;
44048;SDS011;29717;47.028;15.470;2024-01-16T01:58:47;15.17;;;9.47;;
44048;SDS011;29717;47.028;15.470;2024-01-16T02:01:14;11.70;;;8.50;;
44048;SDS011;29717;47.028;15.470;2024-01-16T02:03:42;12.90;;;9.40;;
44048;SDS011;29717;47.028;15.470;2024-01-16T02:06:11;11.83;;;8.83;;
44048;SDS011;29717;47.028;15.470;2024-01-16T02:08:38;11.13;;;8.17;;
44048;SDS011;29717;47.028;15.470;2024-01-16T02:11:06;10.67;;;8.37;;
44048;SDS011;29717;47.028;15.470;2024-01-16T02:13:33;11.57;;;7.83;;
44048;SDS011;29717;47.028;15.470;2024-01-16T02:16:00;11.83;;;8.00;;
44048;SDS011;29717;47.028;15.470;2024-01-16T02:18:26;9.70;;;7.43;;
44048;SDS011;29717;47.028;15.470;2024-01-16T02:20:53;12.67;;;8.20;;
44048;SDS011;29717;47.028;15.470;2024-01-16T02:23:25;9.73;;;7.43;;
44048;SDS011;29717;47.028;15.470;2024-01-16T02:25:52;10.33;;;7.63;;
44048;SDS011;29717;47.028;15.470;2024-01-16T02:28:19;12.37;;;7.40;;
44048;SDS011;29717;47.028;15.470;2024-01-16T02:30:46;11.53;;;7.53;;
44048;SDS011;29717;47.028;15.470;2024-01-16T02:33:13;10.10;;;7.17;;
44048;SDS011;29717;47.028;15.470;2024-01-16T02:35:39;10.63;;;7.40;;
44048;SDS011;29717;47.028;15.470;2024-01-16T02:38:06;9.70;;;7.50;;
44048;SDS011;29717;47.028;15.470;2024-01-16T02:40:34;9.40;;;7.47;;
44048;SDS011;29717;47.028;15.470;2024-01-16T02:43:01;9.67;;;7.30;;
44048;SDS011;29717;47.028;15.470;2024-01-16T02:45:28;8.67;;;6.67;;
44048;SDS011;29717;47.028;15.470;2024-01-16T02:47:55;10.87;;;7.30;;
44048;SDS011;29717;47.028;15.470;2024-01-16T02:50:21;8.43;;;6.47;;
44048;SDS011;29717;47.028;15.470;2024-01-16T02:52:48;9.97;;;7.43;;
44048;SDS011;29717;47.028;15.470;2024-01-16T02:55:15;8.40;;;6.73;;
44048;SDS011;29717;47.028;15.470;2024-01-16T02:57:43;8.37;;;6.50;;
44048;SDS011;29717;47.028;15.470;2024-01-16T03:00:10;10.97;;;7.43;;
44048;SDS011;29717;47.028;15.470;2024-01-16T03:02:37;8.77;;;6.47;;
44048;SDS011;29717;47.028;15.470;2024-01-16T03:05:04;8.43;;;6.53;;
44048;SDS011;29717;47.028;15.470;2024-01-16T03:07:32;10.27;;;6.97;;
44048;SDS011;29717;47.028;15.470;2024-01-16T03:09:58;8.77;;;7.17;;
44048;SDS011;29717;47.028;15.470;2024-01-16T03:12:25;8.57;;;6.30;;
44048;SDS011;29717;47.028;15.470;2024-01-16T03:14:53;9.47;;;6.97;;
44048;SDS011;29717;47.028;15.470;2024-01-16T03:17:21;8.23;;;6.70;;
44048;SDS011;29717;47.028;15.470;2024-01-16T03:19:48;7.63;;;6.83;;
44048;SDS011;29717;47.028;15.470;2024-01-16T03:22:14;9.53;;;6.83;;
44048;SDS011;29717;47.028;15.470;2024-01-16T03:24:41;9.23;;;7.50;;
44048;SDS011;29717;47.028;15.470;2024-01-16T03:27:08;10.17;;;7.00;;
44048;SDS011;29717;47.028;15.470;2024-01-16T03:29:35;8.10;;;6.77;;
44048;SDS011;29717;47.028;15.470;2024-01-16T03:32:04;7.83;;;6.30;;
44048;SDS011;29717;47.028;15.470;2024-01-16T03:34:31;9.03;;;6.93;;
44048;SDS011;29717;47.028;15.470;2024-01-16T03:36:57;8.33;;;6.50;;
44048;SDS011;29717;47.028;15.470;2024-01-16T03:39:24;8.70;;;6.20;;
44048;SDS011;29717;47.028;15.470;2024-01-16T03:41:51;8.70;;;6.53;;
44048;SDS011;29717;47.028;15.470;2024-01-16T03:44:18;6.30;;;5.70;;
44048;SDS011;29717;47.028;15.470;2024-01-16T03:46:44;7.90;;;6.60;;
44048;SDS011;29717;47.028;15.470;2024-01-16T03:49:12;8.70;;;6.70;;
44048;SDS011;29717;47.028;15.470;2024-01-16T03:51:39;7.50;;;6.40;;
44048;SDS011;29717;47.028;15.470;2024-01-16T03:54:08;7.00;;;5.60;;
44048;SDS011;29717;47.028;15.470;2024-01-16T03:56:35;7.27;;;6.33;;
44048;SDS011;29717;47.028;15.470;2024-01-16T03:59:01;8.30;;;6.23;;
44048;SDS011;29717;47.028;15.470;2024-01-16T04:01:32;7.43;;;5.60;;
44048;SDS011;29717;47.028;15.470;2024-01-16T04:03:59;6.53;;;5.57;;
44048;SDS011;29717;47.028;15.470;2024-01-16T04:06:28;7.07;;;5.93;;
44048;SDS011;29717;47.028;15.470;2024-01-16T04:08:56;7.30;;;6.10;;
44048;SDS011;29717;47.028;15.470;2024-01-16T04:11:23;6.27;;;5.23;;
44048;SDS011;29717;47.028;15.470;2024-01-16T04:13:49;7.80;;;5.67;;
44048;SDS011;29717;47.028;15.470;2024-01-16T04:16:16;6.70;;;5.60;;
44048;SDS011;29717;47.028;15.470;2024-01-16T04:18:43;7.67;;;5.80;;
44048;SDS011;29717;47.028;15.470;2024-01-16T04:21:10;7.47;;;5.63;;
44048;SDS011;29717;47.028;15.470;2024-01-16T04:23:38;7.43;;;5.90;;
44048;SDS011;29717;47.028;15.470;2024-01-16T04:26:06;7.03;;;5.50;;
44048;SDS011;29717;47.028;15.470;2024-01-16T04:28:33;7.43;;;5.20;;
44048;SDS011;29717;47.028;15.470;2024-01-16T04:30:59;8.97;;;5.20;;
44048;SDS011;29717;47.028;15.470;2024-01-16T04:33:26;8.60;;;5.20;;
44048;SDS011;29717;47.028;15.470;2024-01-16T04:35:53;6.10;;;4.70;;
44048;SDS011;29717;47.028;15.470;2024-01-16T04:38:20;5.63;;;4.70;;
44048;SDS011;29717;47.028;15.470;2024-01-16T04:40:48;6.53;;;5.30;;
44048;SDS011;29717;47.028;15.470;2024-01-16T04:43:15;8.63;;;5.30;;
44048;SDS011;29717;47.028;15.470;2024-01-16T04:45:41;5.70;;;5.00;;
44048;SDS011;29717;47.028;15.470;2024-01-16T04:48:08;6.30;;;5.17;;
44048;SDS011;29717;47.028;15.470;2024-01-16T04:50:36;6.63;;;5.33;;
44048;SDS011;29717;47.028;15.470;2024-01-16T04:53:04;7.93;;;5.47;;
44048;SDS011;29717;47.028;15.470;2024-01-16T04:55:30;6.57;;;5.33;;
44048;SDS011;29717;47.028;15.470;2024-01-16T04:57:59;7.40;;;5.43;;
44048;SDS011;29717;47.028;15.470;2024-01-16T05:00:26;7.20;;;5.20;;
44048;SDS011;29717;47.028;15.470;2024-01-16T05:02:53;6.87;;;5.33;;
44048;SDS011;29717;47.028;15.470;2024-01-16T05:05:20;7.87;;;5.63;;
44048;SDS011;29717;47.028;15.470;2024-01-16T05:07:46;9.47;;;5.70;;
44048;SDS011;29717;47.028;15.470;2024-01-16T05:10:13;6.73;;;5.33;;
44048;SDS011;29717;47.028;15.470;2024-01-16T05:12:40;7.77;;;6.00;;
44048;SDS011;29717;47.028;15.470;2024-01-16T05:15:08;9.00;;;5.70;;
44048;SDS011;29717;47.028;15.470;2024-01-16T05:17:37;6.93;;;5.87;;
44048;SDS011;29717;47.028;15.470;2024-01-16T05:20:05;44.70;;;29.03;;
44048;SDS011;29717;47.028;15.470;2024-01-16T05:22:32;18.53;;;11.80;;
44048;SDS011;29717;47.028;15.470;2024-01-16T05:24:59;8.90;;;6.20;;
44048;SDS011;29717;47.028;15.470;2024-01-16T05:27:26;9.00;;;5.17;;
44048;SDS011;29717;47.028;15.470;2024-01-16T05:29:51;12.03;;;8.43;;
44048;SDS011;29717;47.028;15.470;2024-01-16T05:32:20;11.10;;;7.77;;
44048;SDS011;29717;47.028;15.470;2024-01-16T05:34:46;14.93;;;8.57;;
44048;SDS011;29717;47.028;15.470;2024-01-16T05:37:13;12.53;;;7.37;;
44048;SDS011;29717;47.028;15.470;2024-01-16T05:39:40;10.10;;;5.37;;
44048;SDS011;29717;47.028;15.470;2024-01-16T05:42:07;9.83;;;5.37;;
44048;SDS011;29717;47.028;15.470;2024-01-16T05:44:34;9.73;;;6.13;;
44048;SDS011;29717;47.028;15.470;2024-01-16T05:47:01;7.70;;;5.70;;
44048;SDS011;29717;47.028;15.470;2024-01-16T05:49:30;9.33;;;6.03;;
44048;SDS011;29717;47.028;15.470;2024-01-16T05:51:57;9.83;;;6.87;;
44048;SDS011;29717;47.028;15.470;2024-01-16T05:54:24;8.80;;;5.93;;
44048;SDS011;29717;47.028;15.470;2024-01-16T05:56:51;10.47;;;6.23;;
44048;SDS011;29717;47.028;15.470;2024-01-16T05:59:17;12.40;;;6.37;;
44048;SDS011;29717;47.028;15.470;2024-01-16T06:01:44;9.87;;;6.57;;
44048;SDS011;29717;47.028;15.470;2024-01-16T06:04:11;9.13;;;6.17;;
44048;SDS011;29717;47.028;15.470;2024-01-16T06:06:40;10.50;;;6.10;;
44048;SDS011;29717;47.028;15.470;2024-01-16T06:09:09;14.53;;;6.40;;
44048;SDS011;29717;47.028;15.470;2024-01-16T06:11:39;13.77;;;6.50;;
44048;SDS011;29717;47.028;15.470;2024-01-16T06:14:06;8.60;;;5.83;;
44048;SDS011;29717;47.028;15.470;2024-01-16T06:16:33;11.30;;;6.43;;
44048;SDS011;29717;47.028;15.470;2024-01-16T06:19:00;12.60;;;7.40;;
44048;SDS011;29717;47.028;15.470;2024-01-16T06:21:27;15.10;;;8.37;;
44048;SDS011;29717;47.028;15.470;2024-01-16T06:23:55;13.23;;;7.40;;
44048;SDS011;29717;47.028;15.470;2024-01-16T06:26:22;10.37;;;7.27;;
44048;SDS011;29717;47.028;15.470;2024-01-16T06:28:49;11.50;;;8.10;;
44048;SDS011;29717;47.028;15.470;2024-01-16T06:31:16;15.50;;;8.37;;
44048;SDS011;29717;47.028;15.470;2024-01-16T06:33:43;14.17;;;9.23;;
44048;SDS011;29717;47.028;15.470;2024-01-16T06:36:09;13.37;;;8.60;;
44048;SDS011;29717;47.028;15.470;2024-01-16T06:38:38;19.60;;;10.17;;
44048;SDS011;29717;47.028;15.470;2024-01-16T06:41:06;24.17;;;12.00;;
44048;SDS011;29717;47.028;15.470;2024-01-16T06:43:33;18.57;;;13.57;;
44048;SDS011;29717;47.028;15.470;2024-01-16T06:45:59;18.20;;;13.03;;
44048;SDS011;29717;47.028;15.470;2024-01-16T06:48:26;19.17;;;10.30;;
44048;SDS011;29717;47.028;15.470;2024-01-16T06:50:53;18.43;;;10.10;;
44048;SDS011;29717;47.028;15.470;2024-01-16T06:53:20;19.10;;;9.90;;
44048;SDS011;29717;47.028;15.470;2024-01-16T06:55:47;13.83;;;9.60;;
44048;SDS011;29717;47.028;15.470;2024-01-16T06:58:16;17.43;;;10.03;;
44048;SDS011;29717;47.028;15.470;2024-01-16T07:00:42;19.80;;;10.30;;
44048;SDS011;29717;47.028;15.470;2024-01-16T07:03:10;16.77;;;9.63;;
44048;SDS011;29717;47.028;15.470;2024-01-16T07:05:36;13.63;;;9.10;;
44048;SDS011;29717;47.028;15.470;2024-01-16T07:08:03;13.13;;;8.77;;
44048;SDS011;29717;47.028;15.470;2024-01-16T07:10:30;16.43;;;8.73;;
44048;SDS011;29717;47.028;15.470;2024-01-16T07:12:57;18.10;;;9.30;;
44048;SDS011;29717;47.028;15.470;2024-01-16T07:15:25;18.23;;;11.13;;
44048;SDS011;29717;47.028;15.470;2024-01-16T07:17:52;17.17;;;10.50;;
44048;SDS011;29717;47.028;15.470;2024-01-16T07:20:19;20.93;;;12.50;;
44048;SDS011;29717;47.028;15.470;2024-01-16T07:22:46;19.10;;;11.17;;
44048;SDS011;29717;47.028;15.470;2024-01-16T07:25:12;14.37;;;9.43;;
44048;SDS011;29717;47.028;15.470;2024-01-16T07:27:39;15.63;;;10.50;;
44048;SDS011;29717;47.028;15.470;2024-01-16T07:30:08;17.77;;;11.10;;
44048;SDS011;29717;47.028;15.470;2024-01-16T07:32:36;20.47;;;12.07;;
44048;SDS011;29717;47.028;15.470;2024-01-16T07:35:03;17.73;;;11.67;;
44048;SDS011;29717;47.028;15.470;2024-01-16T07:37:30;20.17;;;12.10;;
44048;SDS011;29717;47.028;15.470;2024-01-16T07:39:57;17.13;;;11.40;;
44048;SDS011;29717;47.028;15.470;2024-01-16T07:42:24;15.53;;;10.37;;
44048;SDS011;29717;47.028;15.470;2024-01-16T07:44:51;19.73;;;10.37;;
44048;SDS011;29717;47.028;15.470;2024-01-16T07:47:20;16.63;;;9.53;;
44048;SDS011;29717;47.028;15.470;2024-01-16T07:49:48;13.93;;;9.67;;
44048;SDS011;29717;47.028;15.470;2024-01-16T07:52:15;17.87;;;9.37;;
44048;SDS011;29717;47.028;15.470;2024-01-16T07:54:41;18.43;;;8.33;;
44048;SDS011;29717;47.028;15.470;2024-01-16T07:57:08;16.83;;;8.37;;
44048;SDS011;29717;47.028;15.470;2024-01-16T07:59:35;14.23;;;7.97;;
44048;SDS011;29717;47.028;15.470;2024-01-16T08:02:02;15.00;;;8.33;;
44048;SDS011;29717;47.028;15.470;2024-01-16T08:04:30;14.03;;;7.77;;
44048;SDS011;29717;47.028;15.470;2024-01-16T08:06:58;13.93;;;8.33;;
44048;SDS011;29717;47.028;15.470;2024-01-16T08:09:25;13.80;;;7.53;;
44048;SDS011;29717;47.028;15.470;2024-01-16T08:11:52;15.03;;;8.90;;
44048;SDS011;29717;47.028;15.470;2024-01-16T08:14:19;15.17;;;10.03;;
44048;SDS011;29717;47.028;15.470;2024-01-16T08:16:45;19.60;;;11.27;;
44048;SDS011;29717;47.028;15.470;2024-01-16T08:19:13;24.60;;;11.57;;
44048;SDS011;29717;47.028;15.470;2024-01-16T08:21:40;20.77;;;11.80;;
44048;SDS011;29717;47.028;15.470;2024-01-16T08:24:08;18.13;;;12.37;;
44048;SDS011;29717;47.028;15.470;2024-01-16T08:26:35;20.43;;;11.70;;
44048;SDS011;29717;47.028;15.470;2024-01-16T08:29:02;19.70;;;12.03;;
44048;SDS011;29717;47.028;15.470;2024-01-16T08:31:28;18.47;;;11.90;;
44048;SDS011;29717;47.028;15.470;2024-01-16T08:33:55;23.43;;;11.87;;
44048;SDS011;29717;47.028;15.470;2024-01-16T08:36:23;20.70;;;12.40;;
44048;SDS011;29717;47.028;15.470;2024-01-16T08:38:49;21.47;;;12.50;;
44048;SDS011;29717;47.028;15.470;2024-01-16T08:41:17;25.60;;;11.68;;
44048;SDS011;29717;47.028;15.470;2024-01-16T08:43:44;16.70;;;9.88;;
44048;SDS011;29717;47.028;15.470;2024-01-16T08:46:11;16.02;;;9.90;;
44048;SDS011;29717;47.028;15.470;2024-01-16T08:48:38;15.43;;;9.43;;
44048;SDS011;29717;47.028;15.470;2024-01-16T08:51:06;14.65;;;10.07;;
44048;SDS011;29717;47.028;15.470;2024-01-16T08:53:34;15.50;;;7.40;;
44048;SDS011;29717;47.028;15.470;2024-01-16T08:56:01;14.70;;;8.95;;
44048;SDS011;29717;47.028;15.470;2024-01-16T08:58:29;16.02;;;9.70;;
44048;SDS011;29717;47.028;15.470;2024-01-16T09:01:01;22.33;;;12.25;;
44048;SDS011;29717;47.028;15.470;2024-01-16T09:03:27;21.55;;;11.07;;
44048;SDS011;29717;47.028;15.470;2024-01-16T09:05:54;18.65;;;10.85;;
44048;SDS011;29717;47.028;15.470;2024-01-16T09:08:21;22.48;;;11.55;;
44048;SDS011;29717;47.028;15.470;2024-01-16T09:10:47;24.13;;;11.40;;
44048;SDS011;29717;47.028;15.470;2024-01-16T09:13:14;21.40;;;10.65;;
44048;SDS011;29717;47.028;15.470;2024-01-16T09:15:42;25.60;;;11.75;;
44048;SDS011;29717;47.028;15.470;2024-01-16T09:18:09;18.67;;;10.32;;
44048;SDS011;29717;47.028;15.470;2024-01-16T09:20:36;18.25;;;10.32;;
44048;SDS011;29717;47.028;15.470;2024-01-16T09:23:03;19.88;;;10.50;;
44048;SDS011;29717;47.028;15.470;2024-01-16T09:25:29;20.40;;;7.90;;
44048;SDS011;29717;47.028;15.470;2024-01-16T09:27:56;16.30;;;6.70;;
44048;SDS011;29717;47.028;15.470;2024-01-16T09:30:23;8.88;;;6.20;;
44048;SDS011;29717;47.028;15.470;2024-01-16T09:32:51;10.75;;;5.95;;
44048;SDS011;29717;47.028;15.470;2024-01-16T09:35:18;11.85;;;5.82;;
44048;SDS011;29717;47.028;15.470;2024-01-16T09:37:45;9.98;;;5.53;;
44048;SDS011;29717;47.028;15.470;2024-01-16T09:40:11;10.40;;;6.00;;
44048;SDS011;29717;47.028;15.470;2024-01-16T09:42:39;13.43;;;5.90;;
44048;SDS011;29717;47.028;15.470;2024-01-16T09:45:06;18.88;;;6.60;;
44048;SDS011;29717;47.028;15.470;2024-01-16T09:47:33;8.00;;;5.72;;
44048;SDS011;29717;47.028;15.470;2024-01-16T09:50:02;15.35;;;6.20;;
44048;SDS011;29717;47.028;15.470;2024-01-16T09:52:29;10.68;;;5.85;;
44048;SDS011;29717;47.028;15.470;2024-01-16T09:54:56;10.55;;;5.03;;
44048;SDS011;29717;47.028;15.470;2024-01-16T09:57:24;11.55;;;5.30;;
44048;SDS011;29717;47.028;15.470;2024-01-16T10:27:51;16.33;;;4.57;;
44048;SDS011;29717;47.028;15.470;2024-01-16T10:30:28;15.75;;;4.03;;
44048;SDS011;29717;47.028;15.470;2024-01-16T10:32:55;12.95;;;3.58;;
44048;SDS011;29717;47.028;15.470;2024-01-16T10:35:38;21.73;;;3.95;;
44048;SDS011;29717;47.028;15.470;2024-01-16T10:38:05;13.90;;;4.07;;
44048;SDS011;29717;47.028;15.470;2024-01-16T10:40:32;16.73;;;4.22;;
44048;SDS011;29717;47.028;15.470;2024-01-16T10:43:01;9.48;;;3.33;;
44048;SDS011;29717;47.028;15.470;2024-01-16T10:45:28;10.60;;;3.45;;
44048;SDS011;29717;47.028;15.470;2024-01-16T10:48:00;8.30;;;3.17;;
44048;SDS011;29717;47.028;15.470;2024-01-16T10:50:27;7.88;;;2.80;;
44048;SDS011;29717;47.028;15.470;2024-01-16T10:52:54;6.03;;;2.47;;
44048;SDS011;29717;47.028;15.470;2024-01-16T10:55:21;5.05;;;2.40;;
44048;SDS011;29717;47.028;15.470;2024-01-16T10:57:48;5.35;;;2.10;;
44048;SDS011;29717;47.028;15.470;2024-01-16T11:00:19;3.78;;;2.20;;
44048;SDS011;29717;47.028;15.470;2024-01-16T11:02:50;7.15;;;2.88;;
44048;SDS011;29717;47.028;15.470;2024-01-16T11:05:18;4.32;;;2.50;;
44048;SDS011;29717;47.028;15.470;2024-01-16T11:07:45;5.63;;;2.80;;
44048;SDS011;29717;47.028;15.470;2024-01-16T11:10:13;3.83;;;2.13;;
44048;SDS011;29717;47.028;15.470;2024-01-16T11:12:40;6.18;;;2.40;;
44048;SDS011;29717;47.028;15.470;2024-01-16T11:15:07;3.92;;;2.20;;
44048;SDS011;29717;47.028;15.470;2024-01-16T11:17:36;2.80;;;2.00;;
44048;SDS011;29717;47.028;15.470;2024-01-16T11:20:05;7.90;;;3.03;;
44048;SDS011;29717;47.028;15.470;2024-01-16T11:22:35;5.88;;;2.53;;
44048;SDS011;29717;47.028;15.470;2024-01-16T11:25:10;3.47;;;2.40;;
44048;SDS011;29717;47.028;15.470;2024-01-16T11:27:37;1.70;;;1.40;;
44048;SDS011;29717;47.028;15.470;2024-01-16T11:30:07;4.65;;;3.75;;
44048;SDS011;29717;47.028;15.470;2024-01-16T11:32:36;5.20;;;4.60;;
44048;SDS011;29717;47.028;15.470;2024-01-16T11:35:03;5.95;;;4.60;;
44048;SDS011;29717;47.028;15.470;2024-01-16T11:37:31;8.40;;;6.75;;
44048;SDS011;29717;47.028;15.470;2024-01-16T11:42:44;8.75;;;5.20;;
44048;SDS011;29717;47.028;15.470;2024-01-16T11:45:17;6.85;;;4.47;;
44048;SDS011;29717;47.028;15.470;2024-01-16T11:48:12;5.53;;;4.25;;
44048;SDS011;29717;47.028;15.470;2024-01-16T11:50:39;4.82;;;4.00;;
44048;SDS011;29717;47.028;15.470;2024-01-16T11:53:06;3.75;;;3.40;;
44048;SDS011;29717;47.028;15.470;2024-01-16T11:55:33;8.65;;;4.35;;
44048;SDS011;29717;47.028;15.470;2024-01-16T11:58:15;6.25;;;3.70;;
44048;SDS011;29717;47.028;15.470;2024-01-16T12:00:46;3.72;;;3.30;;
44048;SDS011;29717;47.028;15.470;2024-01-16T12:03:18;3.08;;;2.58;;
44048;SDS011;29717;47.028;15.470;2024-01-16T12:05:46;3.53;;;2.83;;
44048;SDS011;29717;47.028;15.470;2024-01-16T12:08:21;4.70;;;3.17;;
44048;SDS011;29717;47.028;15.470;2024-01-16T12:10:47;2.80;;;2.40;;
44048;SDS011;29717;47.028;15.470;2024-01-16T12:13:14;5.57;;;2.47;;
44048;SDS011;29717;47.028;15.470;2024-01-16T12:15:41;2.67;;;2.47;;
44048;SDS011;29717;47.028;15.470;2024-01-16T12:18:08;2.53;;;2.33;;
44048;SDS011;29717;47.028;15.470;2024-01-16T12:20:36;3.08;;;2.58;;
44048;SDS011;29717;47.028;15.470;2024-01-16T12:23:04;2.42;;;2.15;;
44048;SDS011;29717;47.028;15.470;2024-01-16T12:25:33;4.25;;;2.80;;
44048;SDS011;29717;47.028;15.470;2024-01-16T12:28:00;3.03;;;2.53;;
44048;SDS011;29717;47.028;15.470;2024-01-16T12:30:29;3.60;;;2.92;;
44048;SDS011;29717;47.028;15.470;2024-01-16T12:33:05;4.88;;;2.65;;
44048;SDS011;29717;47.028;15.470;2024-01-16T12:35:33;3.78;;;2.47;;
44048;SDS011;29717;47.028;15.470;2024-01-16T12:38:02;3.67;;;2.10;;
44048;SDS011;29717;47.028;15.470;2024-01-16T12:40:30;2.92;;;2.00;;
44048;SDS011;29717;47.028;15.470;2024-01-16T12:42:57;3.40;;;2.03;;
44048;SDS011;29717;47.028;15.470;2024-01-16T12:45:24;2.72;;;2.00;;
44048;SDS011;29717;47.028;15.470;2024-01-16T12:47:54;7.97;;;2.63;;
44048;SDS011;29717;47.028;15.470;2024-01-16T12:50:23;3.08;;;2.28;;
44048;SDS011;29717;47.028;15.470;2024-01-16T12:53:00;16.27;;;3.70;;
44048;SDS011;29717;47.028;15.470;2024-01-16T12:55:28;2.00;;;1.80;;
44048;SDS011;29717;47.028;15.470;2024-01-16T13:00:36;2.38;;;2.10;;
44048;SDS011;29717;47.028;15.470;2024-01-16T13:03:04;4.13;;;2.15;;
44048;SDS011;29717;47.028;15.470;2024-01-16T13:05:31;2.22;;;2.03;;
44048;SDS011;29717;47.028;15.470;2024-01-16T13:08:01;4.20;;;2.50;;
44048;SDS011;29717;47.028;15.470;2024-01-16T13:10:30;4.03;;;2.00;;
44048;SDS011;29717;47.028;15.470;2024-01-16T13:15:42;4.68;;;3.05;;
44048;SDS011;29717;47.028;15.470;2024-01-16T13:18:18;4.63;;;3.00;;
44048;SDS011;29717;47.028;15.470;2024-01-16T13:20:47;9.43;;;7.05;;
44048;SDS011;29717;47.028;15.470;2024-01-16T13:23:14;5.13;;;2.80;;
44048;SDS011;29717;47.028;15.470;2024-01-16T13:25:43;4.47;;;2.70;;
44048;SDS011;29717;47.028;15.470;2024-01-16T13:28:11;6.13;;;3.13;;
44048;SDS011;29717;47.028;15.470;2024-01-16T13:30:39;2.70;;;2.50;;
44048;SDS011;29717;47.028;15.470;2024-01-16T13:33:06;3.92;;;3.33;;
44048;SDS011;29717;47.028;15.470;2024-01-16T13:35:34;5.95;;;4.32;;
44048;SDS011;29717;47.028;15.470;2024-01-16T13:38:01;3.17;;;2.88;;
44048;SDS011;29717;47.028;15.470;2024-01-16T13:40:29;3.40;;;3.10;;
44048;SDS011;29717;47.028;15.470;2024-01-16T13:42:57;4.32;;;3.17;;
44048;SDS011;29717;47.028;15.470;2024-01-16T13:45:24;4.15;;;3.03;;
44048;SDS011;29717;47.028;15.470;2024-01-16T13:47:50;3.38;;;2.80;;
44048;SDS011;29717;47.028;15.470;2024-01-16T13:50:17;4.15;;;2.75;;
44048;SDS011;29717;47.028;15.470;2024-01-16T13:52:44;3.00;;;2.65;;
44048;SDS011;29717;47.028;15.470;2024-01-16T13:55:11;3.72;;;3.20;;
44048;SDS011;29717;47.028;15.470;2024-01-16T13:57:37;4.38;;;3.40;;
44048;SDS011;29717;47.028;15.470;2024-01-16T14:00:07;3.95;;;3.53;;
44048;SDS011;29717;47.028;15.470;2024-01-16T14:02:38;5.90;;;4.00;;
44048;SDS011;29717;47.028;15.470;2024-01-16T14:05:07;4.88;;;3.92;;
44048;SDS011;29717;47.028;15.470;2024-01-16T14:07:36;4.28;;;3.83;;
44048;SDS011;29717;47.028;15.470;2024-01-16T14:10:03;4.97;;;4.20;;
44048;SDS011;29717;47.028;15.470;2024-01-16T14:12:31;4.70;;;4.20;;
44048;SDS011;29717;47.028;15.470;2024-01-16T14:14:58;6.35;;;4.50;;
44048;SDS011;29717;47.028;15.470;2024-01-16T14:17:27;6.28;;;5.18;;
44048;SDS011;29717;47.028;15.470;2024-01-16T14:19:53;7.72;;;5.18;;
44048;SDS011;29717;47.028;15.470;2024-01-16T14:22:20;6.78;;;5.82;;
44048;SDS011;29717;47.028;15.470;2024-01-16T14:24:47;8.40;;;5.50;;
44048;SDS011;29717;47.028;15.470;2024-01-16T14:27:16;9.90;;;7.18;;
44048;SDS011;29717;47.028;15.470;2024-01-16T14:29:43;8.45;;;7.35;;
44048;SDS011;29717;47.028;15.470;2024-01-16T14:32:09;9.70;;;6.93;;
44048;SDS011;29717;47.028;15.470;2024-01-16T14:34:37;7.93;;;6.00;;
44048;SDS011;29717;47.028;15.470;2024-01-16T14:37:04;10.18;;;6.32;;
44048;SDS011;29717;47.028;15.470;2024-01-16T14:39:31;7.40;;;6.28;;
44048;SDS011;29717;47.028;15.470;2024-01-16T14:41:58;8.05;;;6.82;;
44048;SDS011;29717;47.028;15.470;2024-01-16T14:44:25;9.95;;;7.53;;
44048;SDS011;29717;47.028;15.470;2024-01-16T14:46:51;23.65;;;15.90;;
44048;SDS011;29717;47.028;15.470;2024-01-16T14:49:19;43.70;;;29.67;;
44048;SDS011;29717;47.028;15.470;2024-01-16T14:51:47;25.67;;;18.60;;
44048;SDS011;29717;47.028;15.470;2024-01-16T14:54:15;10.93;;;7.68;;
44048;SDS011;29717;47.028;15.470;2024-01-16T14:56:42;9.38;;;7.30;;
44048;SDS011;29717;47.028;15.470;2024-01-16T14:59:09;12.95;;;7.75;;
44048;SDS011;29717;47.028;15.470;2024-01-16T15:01:35;7.82;;;6.60;;
44048;SDS011;29717;47.028;15.470;2024-01-16T15:04:03;9.15;;;6.50;;